sensor_id;sensor_type;location;lat;lon;timestamp;pressure;altitude;pressure_sealevel;temperature
71205;BMP180;58935;54.498;18.544;2023-06-22T00:02:22;100653.60;;;19.40
71205;BMP180;58935;54.498;18.544;2023-06-22T00:04:47;100651.80;;;19.40
71205;BMP180;58935;54.498;18.544;2023-06-22T00:07:15;100656.60;;;19.40
71205;BMP180;58935;54.498;18.544;2023-06-22T00:09:40;100652.60;;;19.30
71205;BMP180;58935;54.498;18.544;2023-06-22T00:12:06;100656.60;;;19.30
71205;BMP180;58935;54.498;18.544;2023-06-22T00:14:32;100657.40;;;19.28
71205;BMP180;58935;54.498;18.544;2023-06-22T00:16:57;100664.40;;;19.20
71205;BMP180;58935;54.498;18.544;2023-06-22T00:19:24;100658.40;;;19.20
71205;BMP180;58935;54.498;18.544;2023-06-22T00:21:51;100652.00;;;19.20
71205;BMP180;58935;54.498;18.544;2023-06-22T00:24:20;100656.60;;;19.12
71205;BMP180;58935;54.498;18.544;2023-06-22T00:26:47;100665.00;;;19.10
71205;BMP180;58935;54.498;18.544;2023-06-22T00:29:13;100671.20;;;19.10
71205;BMP180;58935;54.498;18.544;2023-06-22T00:31:38;100670.80;;;19.10
71205;BMP180;58935;54.498;18.544;2023-06-22T00:34:03;100669.60;;;19.00
71205;BMP180;58935;54.498;18.544;2023-06-22T00:36:29;100672.80;;;19.00
71205;BMP180;58935;54.498;18.544;2023-06-22T00:38:54;100683.00;;;19.00
71205;BMP180;58935;54.498;18.544;2023-06-22T00:41:22;100683.20;;;18.90
71205;BMP180;58935;54.498;18.544;2023-06-22T00:43:47;100684.00;;;18.90
71205;BMP180;58935;54.498;18.544;2023-06-22T00:46:13;100679.40;;;18.90
71205;BMP180;58935;54.498;18.544;2023-06-22T00:48:38;100665.80;;;18.82
71205;BMP180;58935;54.498;18.544;2023-06-22T00:51:05;100673.80;;;18.80
71205;BMP180;58935;54.498;18.544;2023-06-22T00:53:34;100672.60;;;18.80
71205;BMP180;58935;54.498;18.544;2023-06-22T00:56:00;100677.40;;;18.80
71205;BMP180;58935;54.498;18.544;2023-06-22T00:58:28;100678.40;;;18.70
71205;BMP180;58935;54.498;18.544;2023-06-22T01:00:53;100687.00;;;18.70
71205;BMP180;58935;54.498;18.544;2023-06-22T01:03:20;100687.00;;;18.70
71205;BMP180;58935;54.498;18.544;2023-06-22T01:05:46;100686.00;;;18.70
71205;BMP180;58935;54.498;18.544;2023-06-22T01:08:25;100681.60;;;18.70
71205;BMP180;58935;54.498;18.544;2023-06-22T01:11:05;100689.20;;;18.68
71205;BMP180;58935;54.498;18.544;2023-06-22T01:13:41;100693.60;;;18.60
71205;BMP180;58935;54.498;18.544;2023-06-22T01:16:15;100689.80;;;18.60
71205;BMP180;58935;54.498;18.544;2023-06-22T01:18:50;100679.40;;;18.60
71205;BMP180;58935;54.498;18.544;2023-06-22T01:21:20;100687.40;;;18.58
71205;BMP180;58935;54.498;18.544;2023-06-22T01:24:18;100690.00;;;18.50
71205;BMP180;58935;54.498;18.544;2023-06-22T01:27:09;100688.80;;;18.50
71205;BMP180;58935;54.498;18.544;2023-06-22T01:29:39;100685.20;;;18.50
71205;BMP180;58935;54.498;18.544;2023-06-22T01:32:06;100687.20;;;18.50
71205;BMP180;58935;54.498;18.544;2023-06-22T01:34:35;100684.80;;;18.44
71205;BMP180;58935;54.498;18.544;2023-06-22T01:37:03;100693.20;;;18.40
71205;BMP180;58935;54.498;18.544;2023-06-22T01:39:29;100696.20;;;18.40
71205;BMP180;58935;54.498;18.544;2023-06-22T01:41:56;100688.80;;;18.40
71205;BMP180;58935;54.498;18.544;2023-06-22T01:44:24;100685.60;;;18.30
71205;BMP180;58935;54.498;18.544;2023-06-22T01:46:51;100681.40;;;18.30
71205;BMP180;58935;54.498;18.544;2023-06-22T01:49:17;100687.40;;;18.30
71205;BMP180;58935;54.498;18.544;2023-06-22T01:51:43;100688.80;;;18.22
71205;BMP180;58935;54.498;18.544;2023-06-22T01:54:08;100693.00;;;18.20
71205;BMP180;58935;54.498;18.544;2023-06-22T01:56:35;100695.60;;;18.20
71205;BMP180;58935;54.498;18.544;2023-06-22T01:59:12;100698.40;;;18.20
71205;BMP180;58935;54.498;18.544;2023-06-22T02:01:52;100695.60;;;18.14
71205;BMP180;58935;54.498;18.544;2023-06-22T02:04:27;100704.80;;;18.10
71205;BMP180;58935;54.498;18.544;2023-06-22T02:06:59;100704.60;;;18.10
71205;BMP180;58935;54.498;18.544;2023-06-22T02:09:29;100701.60;;;18.10
71205;BMP180;58935;54.498;18.544;2023-06-22T02:11:56;100707.20;;;18.10
71205;BMP180;58935;54.498;18.544;2023-06-22T02:14:24;100710.20;;;18.10
71205;BMP180;58935;54.498;18.544;2023-06-22T02:16:51;100708.00;;;18.02
71205;BMP180;58935;54.498;18.544;2023-06-22T02:19:23;100705.80;;;18.00
71205;BMP180;58935;54.498;18.544;2023-06-22T02:21:48;100704.60;;;18.00
71205;BMP180;58935;54.498;18.544;2023-06-22T02:24:14;100702.40;;;18.00
71205;BMP180;58935;54.498;18.544;2023-06-22T02:26:39;100708.20;;;18.00
71205;BMP180;58935;54.498;18.544;2023-06-22T02:29:08;100710.40;;;17.96
71205;BMP180;58935;54.498;18.544;2023-06-22T02:31:33;100712.40;;;17.90
71205;BMP180;58935;54.498;18.544;2023-06-22T02:33:59;100716.80;;;17.90
71205;BMP180;58935;54.498;18.544;2023-06-22T02:36:25;100720.00;;;17.90
71205;BMP180;58935;54.498;18.544;2023-06-22T02:38:54;100724.60;;;17.90
71205;BMP180;58935;54.498;18.544;2023-06-22T02:41:21;100730.80;;;17.90
71205;BMP180;58935;54.498;18.544;2023-06-22T02:44:23;100729.00;;;17.90
71205;BMP180;58935;54.498;18.544;2023-06-22T02:46:49;100731.00;;;17.90
71205;BMP180;58935;54.498;18.544;2023-06-22T02:49:15;100737.00;;;17.90
71205;BMP180;58935;54.498;18.544;2023-06-22T02:51:45;100743.00;;;17.90
71205;BMP180;58935;54.498;18.544;2023-06-22T02:54:11;100748.20;;;17.90
71205;BMP180;58935;54.498;18.544;2023-06-22T02:56:37;100753.00;;;17.90
71205;BMP180;58935;54.498;18.544;2023-06-22T02:59:03;100757.60;;;17.92
71205;BMP180;58935;54.498;18.544;2023-06-22T03:01:29;100755.60;;;18.00
71205;BMP180;58935;54.498;18.544;2023-06-22T03:03:57;100752.80;;;18.00
71205;BMP180;58935;54.498;18.544;2023-06-22T03:06:22;100757.80;;;18.00
71205;BMP180;58935;54.498;18.544;2023-06-22T03:08:50;100756.80;;;18.10
71205;BMP180;58935;54.498;18.544;2023-06-22T03:11:16;100755.60;;;18.10
71205;BMP180;58935;54.498;18.544;2023-06-22T03:13:41;100757.60;;;18.24
71205;BMP180;58935;54.498;18.544;2023-06-22T03:16:06;100754.60;;;18.36
71205;BMP180;58935;54.498;18.544;2023-06-22T04:18:27;100828.60;;;19.20
71205;BMP180;58935;54.498;18.544;2023-06-22T04:20:52;100833.00;;;19.20
71205;BMP180;58935;54.498;18.544;2023-06-22T04:23:18;100834.40;;;19.20
71205;BMP180;58935;54.498;18.544;2023-06-22T04:25:43;100831.20;;;19.20
71205;BMP180;58935;54.498;18.544;2023-06-22T04:28:08;100826.80;;;19.22
71205;BMP180;58935;54.498;18.544;2023-06-22T04:30:38;100825.20;;;19.30
71205;BMP180;58935;54.498;18.544;2023-06-22T04:33:14;100826.00;;;19.30
71205;BMP180;58935;54.498;18.544;2023-06-22T04:35:39;100826.80;;;19.30
71205;BMP180;58935;54.498;18.544;2023-06-22T04:38:06;100826.40;;;19.30
71205;BMP180;58935;54.498;18.544;2023-06-22T04:40:33;100831.20;;;19.30
71205;BMP180;58935;54.498;18.544;2023-06-22T04:42:58;100828.60;;;19.30
71205;BMP180;58935;54.498;18.544;2023-06-22T04:45:28;100834.00;;;19.20
71205;BMP180;58935;54.498;18.544;2023-06-22T04:47:54;100830.20;;;19.20
71205;BMP180;58935;54.498;18.544;2023-06-22T04:50:20;100831.80;;;19.20
71205;BMP180;58935;54.498;18.544;2023-06-22T04:52:48;100833.80;;;19.20
71205;BMP180;58935;54.498;18.544;2023-06-22T04:55:14;100835.40;;;19.30
71205;BMP180;58935;54.498;18.544;2023-06-22T04:57:45;100833.60;;;19.30
71205;BMP180;58935;54.498;18.544;2023-06-22T05:00:16;100841.20;;;19.40
71205;BMP180;58935;54.498;18.544;2023-06-22T05:02:46;100829.20;;;19.42
71205;BMP180;58935;54.498;18.544;2023-06-22T05:05:13;100835.60;;;19.42
71205;BMP180;58935;54.498;18.544;2023-06-22T05:07:43;100837.40;;;19.40
71205;BMP180;58935;54.498;18.544;2023-06-22T05:10:13;100838.60;;;19.40
71205;BMP180;58935;54.498;18.544;2023-06-22T05:12:40;100832.40;;;19.50
71205;BMP180;58935;54.498;18.544;2023-06-22T05:15:07;100825.40;;;19.60
71205;BMP180;58935;54.498;18.544;2023-06-22T05:17:34;100823.40;;;19.70
71205;BMP180;58935;54.498;18.544;2023-06-22T05:20:00;100821.80;;;19.70
71205;BMP180;58935;54.498;18.544;2023-06-22T05:22:25;100824.00;;;19.74
71205;BMP180;58935;54.498;18.544;2023-06-22T05:24:51;100830.00;;;19.80
71205;BMP180;58935;54.498;18.544;2023-06-22T05:27:16;100827.60;;;19.80
71205;BMP180;58935;54.498;18.544;2023-06-22T05:29:42;100823.40;;;19.70
71205;BMP180;58935;54.498;18.544;2023-06-22T05:32:08;100829.00;;;19.70
71205;BMP180;58935;54.498;18.544;2023-06-22T05:38:16;100842.40;;;19.70
71205;BMP180;58935;54.498;18.544;2023-06-22T05:40:41;100842.00;;;19.70
71205;BMP180;58935;54.498;18.544;2023-06-22T05:43:06;100836.80;;;19.74
71205;BMP180;58935;54.498;18.544;2023-06-22T05:45:31;100840.60;;;19.80
71205;BMP180;58935;54.498;18.544;2023-06-22T05:47:57;100840.80;;;19.86
71205;BMP180;58935;54.498;18.544;2023-06-22T05:50:24;100846.20;;;19.90
71205;BMP180;58935;54.498;18.544;2023-06-22T05:52:49;100840.20;;;19.84
71205;BMP180;58935;54.498;18.544;2023-06-22T05:55:15;100845.20;;;19.88
71205;BMP180;58935;54.498;18.544;2023-06-22T05:57:40;100854.00;;;19.90
71205;BMP180;58935;54.498;18.544;2023-06-22T06:00:07;100853.80;;;19.90
71205;BMP180;58935;54.498;18.544;2023-06-22T06:02:37;100859.20;;;19.80
71205;BMP180;58935;54.498;18.544;2023-06-22T06:05:11;100861.00;;;19.80
71205;BMP180;58935;54.498;18.544;2023-06-22T06:07:39;100864.80;;;19.80
71205;BMP180;58935;54.498;18.544;2023-06-22T06:10:05;100857.60;;;19.80
71205;BMP180;58935;54.498;18.544;2023-06-22T06:12:31;100854.20;;;19.80
71205;BMP180;58935;54.498;18.544;2023-06-22T06:14:57;100860.80;;;19.82
71205;BMP180;58935;54.498;18.544;2023-06-22T06:17:22;100865.40;;;19.82
71205;BMP180;58935;54.498;18.544;2023-06-22T06:19:47;100872.40;;;19.82
71205;BMP180;58935;54.498;18.544;2023-06-22T06:22:13;100864.20;;;19.80
71205;BMP180;58935;54.498;18.544;2023-06-22T06:24:40;100867.20;;;19.80
71205;BMP180;58935;54.498;18.544;2023-06-22T06:27:06;100873.20;;;19.90
71205;BMP180;58935;54.498;18.544;2023-06-22T06:29:32;100870.40;;;19.98
71205;BMP180;58935;54.498;18.544;2023-06-22T06:35:39;100865.40;;;20.10
71205;BMP180;58935;54.498;18.544;2023-06-22T06:38:04;100870.00;;;20.20
71205;BMP180;58935;54.498;18.544;2023-06-22T06:40:30;100866.60;;;20.20
71205;BMP180;58935;54.498;18.544;2023-06-22T06:42:55;100873.40;;;20.30
71205;BMP180;58935;54.498;18.544;2023-06-22T06:45:25;100870.20;;;20.34
71205;BMP180;58935;54.498;18.544;2023-06-22T06:47:52;100872.60;;;20.40
71205;BMP180;58935;54.498;18.544;2023-06-22T06:50:18;100871.60;;;20.50
71205;BMP180;58935;54.498;18.544;2023-06-22T06:52:44;100870.80;;;20.52
71205;BMP180;58935;54.498;18.544;2023-06-22T06:55:10;100879.20;;;20.60
71205;BMP180;58935;54.498;18.544;2023-06-22T06:57:38;100884.80;;;20.60
71205;BMP180;58935;54.498;18.544;2023-06-22T07:00:10;100877.00;;;20.60
71205;BMP180;58935;54.498;18.544;2023-06-22T07:02:40;100888.40;;;20.66
71205;BMP180;58935;54.498;18.544;2023-06-22T07:05:07;100892.40;;;20.70
71205;BMP180;58935;54.498;18.544;2023-06-22T07:07:33;100898.40;;;20.70
71205;BMP180;58935;54.498;18.544;2023-06-22T07:09:59;100899.80;;;20.70
71205;BMP180;58935;54.498;18.544;2023-06-22T07:12:27;100900.40;;;20.70
71205;BMP180;58935;54.498;18.544;2023-06-22T07:14:53;100895.40;;;20.76
71205;BMP180;58935;54.498;18.544;2023-06-22T07:17:19;100891.60;;;20.76
71205;BMP180;58935;54.498;18.544;2023-06-22T07:19:44;100889.00;;;20.80
71205;BMP180;58935;54.498;18.544;2023-06-22T07:22:10;100889.00;;;20.80
71205;BMP180;58935;54.498;18.544;2023-06-22T07:24:37;100891.80;;;20.80
71205;BMP180;58935;54.498;18.544;2023-06-22T07:27:03;100890.20;;;20.82
71205;BMP180;58935;54.498;18.544;2023-06-22T07:29:30;100892.20;;;20.88
71205;BMP180;58935;54.498;18.544;2023-06-22T07:31:59;100885.60;;;20.90
71205;BMP180;58935;54.498;18.544;2023-06-22T07:34:25;100888.20;;;21.00
71205;BMP180;58935;54.498;18.544;2023-06-22T07:36:51;100897.80;;;21.00
71205;BMP180;58935;54.498;18.544;2023-06-22T07:39:16;100906.80;;;21.10
71205;BMP180;58935;54.498;18.544;2023-06-22T07:41:44;100906.80;;;21.20
71205;BMP180;58935;54.498;18.544;2023-06-22T07:44:09;100909.20;;;21.30
71205;BMP180;58935;54.498;18.544;2023-06-22T07:46:35;100911.60;;;21.40
71205;BMP180;58935;54.498;18.544;2023-06-22T07:49:00;100911.40;;;21.42
71205;BMP180;58935;54.498;18.544;2023-06-22T07:51:27;100905.40;;;21.50
71205;BMP180;58935;54.498;18.544;2023-06-22T07:53:52;100907.20;;;21.60
71205;BMP180;58935;54.498;18.544;2023-06-22T07:56:20;100913.20;;;21.70
71205;BMP180;58935;54.498;18.544;2023-06-22T07:58:47;100912.20;;;21.68
71205;BMP180;58935;54.498;18.544;2023-06-22T08:01:14;100921.00;;;21.70
71205;BMP180;58935;54.498;18.544;2023-06-22T08:03:39;100921.20;;;21.70
71205;BMP180;58935;54.498;18.544;2023-06-22T08:06:06;100927.00;;;21.60
71205;BMP180;58935;54.498;18.544;2023-06-22T08:08:33;100925.80;;;21.60
71205;BMP180;58935;54.498;18.544;2023-06-22T08:10:58;100934.40;;;21.68
71205;BMP180;58935;54.498;18.544;2023-06-22T08:13:24;100928.00;;;21.70
71205;BMP180;58935;54.498;18.544;2023-06-22T08:15:49;100928.40;;;21.80
71205;BMP180;58935;54.498;18.544;2023-06-22T08:18:15;100922.00;;;21.90
71205;BMP180;58935;54.498;18.544;2023-06-22T08:20:42;100932.80;;;22.00
71205;BMP180;58935;54.498;18.544;2023-06-22T08:23:07;100931.80;;;22.06
71205;BMP180;58935;54.498;18.544;2023-06-22T08:25:34;100938.60;;;22.10
71205;BMP180;58935;54.498;18.544;2023-06-22T08:28:00;100927.40;;;22.10
71205;BMP180;58935;54.498;18.544;2023-06-22T08:30:26;100922.60;;;22.20
71205;BMP180;58935;54.498;18.544;2023-06-22T08:32:52;100924.80;;;22.20
71205;BMP180;58935;54.498;18.544;2023-06-22T08:37:43;100913.80;;;22.30
71205;BMP180;58935;54.498;18.544;2023-06-22T08:40:09;100919.20;;;22.30
71205;BMP180;58935;54.498;18.544;2023-06-22T08:42:36;100913.80;;;22.40
71205;BMP180;58935;54.498;18.544;2023-06-22T08:45:02;100916.20;;;22.40
71205;BMP180;58935;54.498;18.544;2023-06-22T08:47:28;100927.40;;;22.50
71205;BMP180;58935;54.498;18.544;2023-06-22T08:49:54;100926.20;;;22.60
71205;BMP180;58935;54.498;18.544;2023-06-22T08:52:20;100922.00;;;22.60
71205;BMP180;58935;54.498;18.544;2023-06-22T08:54:47;100931.60;;;22.60
71205;BMP180;58935;54.498;18.544;2023-06-22T08:57:13;100929.60;;;22.60
71205;BMP180;58935;54.498;18.544;2023-06-22T08:59:38;100925.80;;;22.50
71205;BMP180;58935;54.498;18.544;2023-06-22T09:02:04;100922.60;;;22.60
71205;BMP180;58935;54.498;18.544;2023-06-22T09:04:29;100928.00;;;22.62
71205;BMP180;58935;54.498;18.544;2023-06-22T09:07:01;100921.00;;;22.62
71205;BMP180;58935;54.498;18.544;2023-06-22T09:09:27;100922.40;;;22.70
71205;BMP180;58935;54.498;18.544;2023-06-22T09:11:52;100926.20;;;22.80
71205;BMP180;58935;54.498;18.544;2023-06-22T09:14:20;100915.80;;;22.90
71205;BMP180;58935;54.498;18.544;2023-06-22T09:16:45;100923.60;;;22.90
71205;BMP180;58935;54.498;18.544;2023-06-22T09:19:11;100914.80;;;22.80
71205;BMP180;58935;54.498;18.544;2023-06-22T09:21:37;100915.60;;;22.80
71205;BMP180;58935;54.498;18.544;2023-06-22T09:24:03;100914.40;;;22.80
71205;BMP180;58935;54.498;18.544;2023-06-22T09:26:28;100919.80;;;22.90
71205;BMP180;58935;54.498;18.544;2023-06-22T09:28:54;100920.80;;;22.90
71205;BMP180;58935;54.498;18.544;2023-06-22T09:31:19;100917.00;;;22.90
71205;BMP180;58935;54.498;18.544;2023-06-22T09:33:53;100918.20;;;22.90
71205;BMP180;58935;54.498;18.544;2023-06-22T09:36:20;100921.20;;;23.00
71205;BMP180;58935;54.498;18.544;2023-06-22T09:38:48;100915.80;;;23.00
71205;BMP180;58935;54.498;18.544;2023-06-22T09:41:14;100921.20;;;23.00
71205;BMP180;58935;54.498;18.544;2023-06-22T09:43:39;100921.40;;;23.00
71205;BMP180;58935;54.498;18.544;2023-06-22T09:46:04;100912.80;;;22.94
71205;BMP180;58935;54.498;18.544;2023-06-22T09:48:31;100915.20;;;22.98
71205;BMP180;58935;54.498;18.544;2023-06-22T09:50:56;100913.00;;;23.00
71205;BMP180;58935;54.498;18.544;2023-06-22T09:53:24;100910.00;;;23.00
71205;BMP180;58935;54.498;18.544;2023-06-22T09:55:51;100912.60;;;23.00
71205;BMP180;58935;54.498;18.544;2023-06-22T09:58:16;100906.60;;;23.10
71205;BMP180;58935;54.498;18.544;2023-06-22T10:00:42;100917.80;;;23.28
71205;BMP180;58935;54.498;18.544;2023-06-22T10:03:07;100915.60;;;23.50
71205;BMP180;58935;54.498;18.544;2023-06-22T10:05:33;100919.80;;;23.60
71205;BMP180;58935;54.498;18.544;2023-06-22T10:07:59;100915.60;;;23.62
71205;BMP180;58935;54.498;18.544;2023-06-22T10:10:25;100913.00;;;23.60
71205;BMP180;58935;54.498;18.544;2023-06-22T10:12:56;100924.20;;;23.70
71205;BMP180;58935;54.498;18.544;2023-06-22T10:15:23;100927.80;;;23.80
71205;BMP180;58935;54.498;18.544;2023-06-22T10:17:48;100928.40;;;23.80
71205;BMP180;58935;54.498;18.544;2023-06-22T10:20:15;100927.40;;;23.70
71205;BMP180;58935;54.498;18.544;2023-06-22T10:22:42;100916.80;;;23.68
71205;BMP180;58935;54.498;18.544;2023-06-22T10:25:10;100920.80;;;23.70
71205;BMP180;58935;54.498;18.544;2023-06-22T10:27:36;100930.80;;;23.70
71205;BMP180;58935;54.498;18.544;2023-06-22T10:30:08;100913.00;;;23.80
71205;BMP180;58935;54.498;18.544;2023-06-22T10:32:34;100906.60;;;23.90
71205;BMP180;58935;54.498;18.544;2023-06-22T10:35:00;100915.80;;;24.02
71205;BMP180;58935;54.498;18.544;2023-06-22T10:37:25;100920.40;;;24.18
71205;BMP180;58935;54.498;18.544;2023-06-22T10:39:51;100922.80;;;24.30
71205;BMP180;58935;54.498;18.544;2023-06-22T10:42:17;100922.60;;;24.40
71205;BMP180;58935;54.498;18.544;2023-06-22T10:44:45;100921.20;;;24.42
71205;BMP180;58935;54.498;18.544;2023-06-22T10:47:11;100925.40;;;24.50
71205;BMP180;58935;54.498;18.544;2023-06-22T10:49:39;100930.40;;;24.60
71205;BMP180;58935;54.498;18.544;2023-06-22T10:52:08;100926.00;;;24.50
71205;BMP180;58935;54.498;18.544;2023-06-22T10:54:35;100931.00;;;24.46
71205;BMP180;58935;54.498;18.544;2023-06-22T10:57:02;100924.00;;;24.50
71205;BMP180;58935;54.498;18.544;2023-06-22T10:59:28;100932.80;;;24.50
71205;BMP180;58935;54.498;18.544;2023-06-22T11:01:57;100923.20;;;24.50
71205;BMP180;58935;54.498;18.544;2023-06-22T11:04:23;100927.00;;;24.64
71205;BMP180;58935;54.498;18.544;2023-06-22T11:06:49;100925.20;;;24.70
71205;BMP180;58935;54.498;18.544;2023-06-22T11:09:15;100925.60;;;24.80
71205;BMP180;58935;54.498;18.544;2023-06-22T11:11:47;100922.20;;;24.90
71205;BMP180;58935;54.498;18.544;2023-06-22T11:14:12;100918.20;;;24.90
71205;BMP180;58935;54.498;18.544;2023-06-22T11:16:38;100919.20;;;25.02
71205;BMP180;58935;54.498;18.544;2023-06-22T11:19:05;100921.80;;;25.10
71205;BMP180;58935;54.498;18.544;2023-06-22T11:21:31;100923.80;;;25.30
71205;BMP180;58935;54.498;18.544;2023-06-22T11:23:58;100912.40;;;25.42
71205;BMP180;58935;54.498;18.544;2023-06-22T11:26:24;100906.20;;;25.56
71205;BMP180;58935;54.498;18.544;2023-06-22T11:28:53;100912.20;;;25.66
71205;BMP180;58935;54.498;18.544;2023-06-22T11:31:18;100915.00;;;25.72
71205;BMP180;58935;54.498;18.544;2023-06-22T11:34:40;100922.60;;;25.80
71205;BMP180;58935;54.498;18.544;2023-06-22T11:37:08;100908.80;;;25.90
71205;BMP180;58935;54.498;18.544;2023-06-22T11:39:33;100913.20;;;25.80
71205;BMP180;58935;54.498;18.544;2023-06-22T11:41:59;100911.80;;;25.90
71205;BMP180;58935;54.498;18.544;2023-06-22T11:44:25;100922.60;;;26.00
71205;BMP180;58935;54.498;18.544;2023-06-22T11:46:51;100919.00;;;26.10
71205;BMP180;58935;54.498;18.544;2023-06-22T11:49:16;100909.60;;;26.16
71205;BMP180;58935;54.498;18.544;2023-06-22T11:51:42;100918.60;;;26.20
71205;BMP180;58935;54.498;18.544;2023-06-22T11:54:10;100916.60;;;26.30
71205;BMP180;58935;54.498;18.544;2023-06-22T11:56:36;100917.00;;;26.30
71205;BMP180;58935;54.498;18.544;2023-06-22T11:59:01;100930.00;;;26.26
71205;BMP180;58935;54.498;18.544;2023-06-22T12:01:27;100923.20;;;26.10
71205;BMP180;58935;54.498;18.544;2023-06-22T12:03:52;100913.20;;;26.12
71205;BMP180;58935;54.498;18.544;2023-06-22T12:06:18;100901.40;;;26.20
71205;BMP180;58935;54.498;18.544;2023-06-22T12:08:43;100915.40;;;26.40
71205;BMP180;58935;54.498;18.544;2023-06-22T12:11:09;100910.60;;;26.50
71205;BMP180;58935;54.498;18.544;2023-06-22T12:13:36;100910.00;;;26.56
71205;BMP180;58935;54.498;18.544;2023-06-22T12:16:02;100916.40;;;26.60
71205;BMP180;58935;54.498;18.544;2023-06-22T12:18:28;100909.20;;;26.70
71205;BMP180;58935;54.498;18.544;2023-06-22T12:20:53;100911.40;;;26.70
71205;BMP180;58935;54.498;18.544;2023-06-22T12:23:18;100910.20;;;26.80
71205;BMP180;58935;54.498;18.544;2023-06-22T12:25:45;100905.40;;;26.90
71205;BMP180;58935;54.498;18.544;2023-06-22T12:28:11;100900.00;;;26.90
71205;BMP180;58935;54.498;18.544;2023-06-22T12:30:36;100899.40;;;27.00
71205;BMP180;58935;54.498;18.544;2023-06-22T12:33:01;100899.40;;;27.10
71205;BMP180;58935;54.498;18.544;2023-06-22T12:35:27;100905.80;;;27.10
71205;BMP180;58935;54.498;18.544;2023-06-22T12:37:52;100912.80;;;27.20
71205;BMP180;58935;54.498;18.544;2023-06-22T12:40:18;100904.60;;;27.20
71205;BMP180;58935;54.498;18.544;2023-06-22T12:42:45;100901.20;;;27.20
71205;BMP180;58935;54.498;18.544;2023-06-22T12:45:10;100904.40;;;27.20
71205;BMP180;58935;54.498;18.544;2023-06-22T12:47:36;100910.80;;;27.20
71205;BMP180;58935;54.498;18.544;2023-06-22T12:50:01;100911.20;;;27.22
71205;BMP180;58935;54.498;18.544;2023-06-22T12:52:30;100910.80;;;27.32
71205;BMP180;58935;54.498;18.544;2023-06-22T12:54:56;100904.00;;;27.40
71205;BMP180;58935;54.498;18.544;2023-06-22T12:57:22;100891.20;;;27.50
71205;BMP180;58935;54.498;18.544;2023-06-22T12:59:48;100905.80;;;27.70
71205;BMP180;58935;54.498;18.544;2023-06-22T13:02:14;100907.60;;;27.78
71205;BMP180;58935;54.498;18.544;2023-06-22T13:04:40;100910.60;;;27.70
71205;BMP180;58935;54.498;18.544;2023-06-22T13:07:06;100906.80;;;27.80
71205;BMP180;58935;54.498;18.544;2023-06-22T13:09:31;100908.20;;;27.80
71205;BMP180;58935;54.498;18.544;2023-06-22T13:11:56;100901.00;;;27.90
71205;BMP180;58935;54.498;18.544;2023-06-22T13:14:22;100897.20;;;27.80
71205;BMP180;58935;54.498;18.544;2023-06-22T13:16:47;100896.60;;;27.80
71205;BMP180;58935;54.498;18.544;2023-06-22T13:19:12;100903.20;;;27.72
71205;BMP180;58935;54.498;18.544;2023-06-22T13:21:38;100899.40;;;27.70
71205;BMP180;58935;54.498;18.544;2023-06-22T13:24:04;100894.20;;;27.60
71205;BMP180;58935;54.498;18.544;2023-06-22T13:26:31;100898.80;;;27.70
71205;BMP180;58935;54.498;18.544;2023-06-22T13:28:57;100900.40;;;27.80
71205;BMP180;58935;54.498;18.544;2023-06-22T13:31:22;100885.00;;;27.88
71205;BMP180;58935;54.498;18.544;2023-06-22T13:33:48;100900.00;;;27.84
71205;BMP180;58935;54.498;18.544;2023-06-22T13:36:14;100896.60;;;27.90
71205;BMP180;58935;54.498;18.544;2023-06-22T13:38:39;100901.40;;;27.90
71205;BMP180;58935;54.498;18.544;2023-06-22T13:41:08;100898.60;;;27.82
71205;BMP180;58935;54.498;18.544;2023-06-22T13:43:33;100889.60;;;27.82
71205;BMP180;58935;54.498;18.544;2023-06-22T13:45:59;100887.40;;;27.90
71205;BMP180;58935;54.498;18.544;2023-06-22T13:48:24;100889.80;;;27.90
71205;BMP180;58935;54.498;18.544;2023-06-22T13:50:52;100893.40;;;28.00
71205;BMP180;58935;54.498;18.544;2023-06-22T13:53:18;100887.40;;;28.10
71205;BMP180;58935;54.498;18.544;2023-06-22T13:55:44;100887.80;;;28.10
71205;BMP180;58935;54.498;18.544;2023-06-22T13:58:09;100885.00;;;28.00
71205;BMP180;58935;54.498;18.544;2023-06-22T14:00:35;100881.60;;;27.92
71205;BMP180;58935;54.498;18.544;2023-06-22T14:03:00;100880.80;;;27.90
71205;BMP180;58935;54.498;18.544;2023-06-22T14:05:26;100880.20;;;27.80
71205;BMP180;58935;54.498;18.544;2023-06-22T14:07:51;100885.00;;;27.78
71205;BMP180;58935;54.498;18.544;2023-06-22T14:10:17;100875.40;;;27.70
71205;BMP180;58935;54.498;18.544;2023-06-22T14:12:42;100875.20;;;27.70
71205;BMP180;58935;54.498;18.544;2023-06-22T14:15:08;100873.40;;;27.80
71205;BMP180;58935;54.498;18.544;2023-06-22T14:17:34;100878.00;;;27.80
71205;BMP180;58935;54.498;18.544;2023-06-22T14:19:59;100875.60;;;27.80
71205;BMP180;58935;54.498;18.544;2023-06-22T14:22:24;100874.20;;;27.80
71205;BMP180;58935;54.498;18.544;2023-06-22T14:24:51;100870.40;;;27.90
71205;BMP180;58935;54.498;18.544;2023-06-22T14:27:16;100879.40;;;28.08
71205;BMP180;58935;54.498;18.544;2023-06-22T14:29:42;100882.20;;;28.00
71205;BMP180;58935;54.498;18.544;2023-06-22T14:32:08;100873.40;;;28.00
71205;BMP180;58935;54.498;18.544;2023-06-22T14:34:35;100874.60;;;28.00
71205;BMP180;58935;54.498;18.544;2023-06-22T14:37:06;100875.00;;;28.06
71205;BMP180;58935;54.498;18.544;2023-06-22T14:39:33;100881.80;;;28.10
71205;BMP180;58935;54.498;18.544;2023-06-22T14:41:58;100876.80;;;28.10
71205;BMP180;58935;54.498;18.544;2023-06-22T14:44:28;100882.60;;;28.20
71205;BMP180;58935;54.498;18.544;2023-06-22T14:46:56;100874.80;;;28.18
71205;BMP180;58935;54.498;18.544;2023-06-22T14:49:22;100872.80;;;28.10
71205;BMP180;58935;54.498;18.544;2023-06-22T14:51:47;100878.40;;;28.00
71205;BMP180;58935;54.498;18.544;2023-06-22T14:54:13;100875.00;;;28.00